TAF and METAR

No METAR available for Benin Airport

TAF for Benin Airport

TAF DNBE 291700Z 2918/3024 VRB02KT 8000 SCT010 PROB30 TEMPO 2922/3003 5000 -TSRA BKN008 FEW018CB TEMPO 3005/3008 5000 BR BECMG 3008/3010 23010KT BKN012 FEW020CB TEMPO 3013/3019 TS SCT012 FEW020CB BECMG 3019/3021 VRB02KT SCT010
Report created 29. mai 19:00

between 29. mai 20:00 - 30. mai 02:00

wind 2 knots from various directions visibility 8000 meters scattered clouds (~50% cover) at 1000 feet

probably (~30%) temporarily between 30. mai 00:00 - 30. mai 05:00

visibility 5000 meters light thunderstorm and rain broken clouds (~75% cover) at 800 feet some clouds (~25% cover) at 1800 feet of type cumulonimbus

temporarily between 30. mai 07:00 - 30. mai 10:00

visibility 5000 meters mist

becoming between 30. mai 10:00 - 30. mai 12:00

wind 10 knots from SW (230°) broken clouds (~75% cover) at 1200 feet some clouds (~25% cover) at 2000 feet of type cumulonimbus

temporarily between 30. mai 15:00 - 30. mai 21:00

thunderstorm scattered clouds (~50% cover) at 1200 feet some clouds (~25% cover) at 2000 feet of type cumulonimbus

becoming between 30. mai 21:00 - 30. mai 23:00

wind 2 knots from various directions scattered clouds (~50% cover) at 1000 feet